Time;durP1;ratioP1;P1;durP2;ratioP2;P2;SDS_P1;SDS_P2;PMS_P1;PMS_P2;Temp;Humidity;BMP_temperature;BMP_pressure;BME280_temperature;BME280_humidity;BME280_pressure;Samples;Min_cycle;Max_cycle;Signal;HPM_P1;HPM_P2
2021/11/17 02:25:53;;;;;;;10.20;5.78;;;4.80;99.90;;;;;;5012290;28;20905;-67
2021/11/17 02:28:39;;;;;;;11.05;5.28;;;4.90;99.90;;;;;;4971911;28;20041;-67
2021/11/17 02:31:37;;;;;;;12.57;6.25;;;4.90;99.90;;;;;;5017110;28;20033;-67
2021/11/17 02:34:21;;;;;;;8.32;5.22;;;4.90;99.90;;;;;;5027671;28;20033;-68
2021/11/17 02:37:12;;;;;;;12.52;5.88;;;4.90;99.90;;;;;;5014252;28;20064;-68
2021/11/17 02:39:41;;;;;;;8.98;5.40;;;4.90;99.90;;;;;;5016347;28;20033;-69
2021/11/17 02:42:25;;;;;;;;;;;4.90;99.90;;;;;;5025779;28;20116;-67
2021/11/17 02:45:28;;;;;;;10.63;5.45;;;4.90;99.90;;;;;;5012007;28;19921;-70
2021/11/17 02:48:09;;;;;;;12.30;5.80;;;4.90;99.90;;;;;;5009276;28;20036;-67
2021/11/17 02:50:38;;;;;;;12.68;6.50;;;4.90;99.90;;;;;;5013247;28;21021;-68
2021/11/17 02:53:06;;;;;;;10.98;5.78;;;4.90;99.90;;;;;;5012059;28;20806;-68
2021/11/17 02:55:43;;;;;;;10.57;5.50;;;4.90;99.90;;;;;;5011626;28;20037;-67
2021/11/17 02:58:31;;;;;;;10.53;5.93;;;4.90;99.90;;;;;;5014417;28;20040;-68
2021/11/17 03:01:24;;;;;;;10.37;5.33;;;4.90;99.90;;;;;;5017582;28;20368;-67
2021/11/17 03:04:05;;;;;;;9.40;4.68;;;4.90;99.90;;;;;;5011271;28;20049;-67
2021/11/17 03:07:08;;;;;;;10.77;5.22;;;4.90;99.90;;;;;;5011917;28;20652;-67
2021/11/17 03:09:56;;;;;;;9.60;4.80;;;4.90;99.90;;;;;;5012499;28;20393;-68
2021/11/17 03:12:34;;;;;;;11.43;5.65;;;4.90;99.90;;;;;;5015315;28;20021;-67
2021/11/17 03:15:27;;;;;;;9.77;5.15;;;4.90;99.90;;;;;;5012364;28;20112;-67
2021/11/17 03:18:04;;;;;;;12.18;5.40;;;5.00;99.90;;;;;;5011910;28;20029;-67
2021/11/17 03:20:33;;;;;;;9.85;4.75;;;5.00;99.90;;;;;;5014070;28;20489;-67
2021/11/17 03:23:32;;;;;;;12.02;5.07;;;4.90;99.90;;;;;;5008177;28;20075;-67
2021/11/17 03:26:13;;;;;;;11.45;5.90;;;4.90;99.90;;;;;;5013095;28;20057;-67
2021/11/17 03:28:56;;;;;;;10.48;5.53;;;4.90;99.90;;;;;;5012794;28;20033;-67
2021/11/17 03:31:44;;;;;;;10.35;5.75;;;4.90;99.90;;;;;;5015210;28;20450;-67
2021/11/17 03:34:28;;;;;;;9.82;5.00;;;4.90;99.90;;;;;;5001969;28;20057;-67
2021/11/17 03:37:25;;;;;;;11.80;5.40;;;4.90;99.90;;;;;;5009853;28;20112;-68
2021/11/17 03:40:17;;;;;;;10.83;5.70;;;4.80;99.90;;;;;;5011647;28;20030;-67
2021/11/17 03:42:45;;;;;;;11.80;6.35;;;4.90;99.90;;;;;;5011434;28;20561;-68
2021/11/17 03:45:14;;;;;;;;;;;4.90;99.90;;;;;;5012267;28;20160;-67
2021/11/17 03:47:51;;;;;;;8.63;5.05;;;4.90;99.90;;;;;;5010319;28;19928;-68
2021/11/17 03:50:34;;;;;;;10.27;5.80;;;4.80;99.90;;;;;;5015826;28;20395;-68
2021/11/17 03:53:38;;;;;;;10.68;5.57;;;4.80;99.90;;;;;;5010232;28;20542;-68
2021/11/17 03:56:30;;;;;;;12.18;6.13;;;4.80;99.90;;;;;;4997807;28;20041;-68
2021/11/17 03:59:17;;;;;;;11.15;6.20;;;4.90;99.90;;;;;;5011788;28;20132;-67
2021/11/17 04:02:07;;;;;;;8.90;4.28;;;4.90;99.90;;;;;;5013727;28;20060;-67
2021/11/17 04:04:39;;;;;;;8.48;4.95;;;4.80;99.90;;;;;;5010888;28;20112;-69
2021/11/17 04:07:26;;;;;;;11.40;5.32;;;4.80;99.90;;;;;;5012853;28;20406;-68
2021/11/17 04:10:00;;;;;;;11.80;5.17;;;4.80;99.90;;;;;;5010673;28;20513;-68
2021/11/17 04:12:26;;;;;;;9.13;4.95;;;4.80;99.90;;;;;;5010128;28;20819;-68
2021/11/17 04:15:23;;;;;;;6.65;4.40;;;4.80;99.90;;;;;;5009528;28;20041;-68
2021/11/17 04:18:23;;;;;;;8.27;4.95;;;4.80;99.90;;;;;;5014311;28;20029;-68
2021/11/17 04:21:07;;;;;;;9.43;4.50;;;4.80;99.90;;;;;;5014633;28;20033;-67
2021/11/17 04:23:54;;;;;;;8.55;4.93;;;4.80;99.90;;;;;;5011401;28;20119;-68
2021/11/17 04:26:20;;;;;;;10.07;5.00;;;4.90;99.90;;;;;;5012894;28;20140;-67
2021/11/17 04:28:58;;;;;;;11.30;6.07;;;4.80;99.90;;;;;;5017471;28;20025;-68
2021/11/17 04:31:33;;;;;;;9.00;4.95;;;4.80;99.90;;;;;;5030250;28;20059;-67
2021/11/17 04:34:02;;;;;;;11.77;5.60;;;4.90;99.90;;;;;;5010791;28;20033;-68
2021/11/17 04:36:53;;;;;;;11.63;5.43;;;4.90;99.90;;;;;;5009367;28;20040;-67
2021/11/17 04:39:44;;;;;;;11.18;5.38;;;4.90;99.90;;;;;;5027976;28;20048;-68
2021/11/17 04:42:31;;;;;;;11.10;5.05;;;5.00;99.90;;;;;;5013898;28;20647;-67
2021/11/17 04:45:33;;;;;;;9.48;5.53;;;5.00;99.90;;;;;;5009073;28;20091;-67
2021/11/17 04:48:17;;;;;;;8.57;4.57;;;4.90;99.90;;;;;;5010497;28;20033;-68
2021/11/17 04:50:54;;;;;;;12.27;5.22;;;5.00;99.90;;;;;;5009592;28;20096;-68
2021/11/17 04:53:44;;;;;;;11.25;6.03;;;4.90;99.90;;;;;;5009701;28;20074;-68
2021/11/17 04:56:22;;;;;;;10.40;5.18;;;5.00;99.90;;;;;;5010362;28;20033;-67
2021/11/17 04:59:00;;;;;;;12.27;5.93;;;4.90;99.90;;;;;;5013626;28;20637;-68
2021/11/17 05:01:53;;;;;;;8.73;5.10;;;4.90;99.90;;;;;;5014431;28;20112;-68
2021/11/17 05:04:49;;;;;;;11.43;5.63;;;5.00;99.90;;;;;;4998952;28;20041;-68
2021/11/17 05:07:45;;;;;;;10.30;5.82;;;4.90;99.90;;;;;;5009129;28;20135;-68
2021/11/17 05:10:32;;;;;;;9.50;4.80;;;5.00;99.90;;;;;;5026557;28;20559;-68
2021/11/17 05:13:18;;;;;;;14.73;5.18;;;5.00;99.90;;;;;;5009722;28;20111;-68
2021/11/17 05:15:52;;;;;;;8.98;4.95;;;5.00;99.90;;;;;;5027917;28;20025;-68
2021/11/17 05:18:24;;;;;;;7.82;5.03;;;5.00;99.90;;;;;;5009945;28;20042;-67
2021/11/17 05:21:13;;;;;;;11.85;7.10;;;5.00;99.90;;;;;;5010589;28;20474;-67
2021/11/17 05:23:57;;;;;;;11.15;5.53;;;5.00;99.90;;;;;;5008960;28;20077;-67
2021/11/17 05:26:28;;;;;;;9.07;4.55;;;5.00;99.90;;;;;;5009777;28;20128;-67
2021/11/17 05:29:28;;;;;;;9.40;5.38;;;5.00;99.90;;;;;;5028685;28;20037;-67
2021/11/17 05:32:15;;;;;;;10.15;5.25;;;5.00;99.90;;;;;;5011354;28;20523;-68
2021/11/17 05:34:53;;;;;;;10.35;5.22;;;5.10;99.90;;;;;;5010611;28;20033;-68
2021/11/17 05:37:28;;;;;;;11.37;4.73;;;5.10;99.90;;;;;;5009567;28;20030;-68
2021/11/17 05:40:24;;;;;;;7.95;4.78;;;5.10;99.90;;;;;;5009266;28;20303;-67
2021/11/17 05:43:11;;;;;;;8.45;4.70;;;5.00;99.90;;;;;;5012225;28;20042;-67
2021/11/17 05:45:55;;;;;;;10.60;4.53;;;5.10;99.90;;;;;;5005952;28;20057;-67
2021/11/17 05:48:41;;;;;;;9.48;4.65;;;5.00;99.90;;;;;;5008920;28;20122;-68
2021/11/17 05:51:31;;;;;;;13.38;5.10;;;5.00;99.90;;;;;;5009314;28;20022;-68
2021/11/17 05:54:06;;;;;;;8.57;4.20;;;5.00;99.90;;;;;;4980594;28;20944;-68
2021/11/17 05:57:18;;;;;;;9.57;4.40;;;5.00;99.90;;;;;;5010382;28;20036;-67
2021/11/17 05:59:50;;;;;;;9.00;4.25;;;5.10;99.90;;;;;;4999520;28;20514;-68
2021/11/17 06:02:39;;;;;;;13.68;5.75;;;5.00;99.90;;;;;;5015472;28;20037;-69
2021/11/17 06:05:05;;;;;;;11.90;5.50;;;5.00;99.90;;;;;;5012674;28;20041;-68
2021/11/17 06:07:30;;;;;;;11.50;5.20;;;5.00;99.90;;;;;;5012013;28;20026;-68
2021/11/17 06:10:28;;;;;;;8.73;4.80;;;5.00;99.90;;;;;;5011948;28;20017;-68
2021/11/17 06:12:54;;;;;;;11.32;4.72;;;4.90;99.90;;;;;;5005492;28;20471;-67
2021/11/17 06:15:20;;;;;;;8.05;4.30;;;4.90;99.90;;;;;;5013667;28;20128;-68
2021/11/17 06:17:49;;;;;;;12.20;5.47;;;4.90;99.90;;;;;;5011099;28;20041;-68
2021/11/17 06:20:17;;;;;;;;;;;4.90;99.90;;;;;;5013358;28;20044;-67
2021/11/17 06:22:46;;;;;;;11.20;4.93;;;4.90;99.90;;;;;;5028105;28;19914;-68
2021/11/17 06:25:14;;;;;;;11.45;5.35;;;4.90;99.90;;;;;;5012645;28;20759;-67
2021/11/17 06:27:47;;;;;;;11.82;5.55;;;5.00;99.90;;;;;;5011615;28;21551;-67
2021/11/17 06:30:16;;;;;;;9.02;5.07;;;5.00;99.90;;;;;;5030810;28;20040;-68
2021/11/17 06:32:42;;;;;;;11.85;5.78;;;5.00;99.90;;;;;;5015049;28;20124;-68
2021/11/17 06:35:10;;;;;;;10.27;4.82;;;5.00;99.90;;;;;;5012349;28;20030;-67
2021/11/17 06:37:36;;;;;;;9.45;4.97;;;5.00;99.90;;;;;;5013079;28;20490;-67
2021/11/17 06:40:06;;;;;;;10.60;5.95;;;4.90;99.90;;;;;;5015191;28;20038;-68
2021/11/17 06:42:38;;;;;;;10.00;5.35;;;5.00;99.90;;;;;;5014061;28;20029;-67
2021/11/17 06:45:11;;;;;;;8.27;4.55;;;5.00;99.90;;;;;;5012404;28;20112;-67
2021/11/17 06:47:37;;;;;;;10.70;5.38;;;4.90;99.90;;;;;;5012068;28;20038;-68
2021/11/17 06:50:04;;;;;;;12.15;5.00;;;5.00;99.90;;;;;;5012794;28;20030;-68
2021/11/17 06:52:30;;;;;;;11.45;5.32;;;5.00;99.90;;;;;;5019122;28;20080;-69
2021/11/17 06:54:56;;;;;;;14.13;5.90;;;5.00;99.90;;;;;;5014457;28;20029;-69
2021/11/17 06:57:21;;;;;;;12.25;5.95;;;5.00;99.90;;;;;;5018334;28;20033;-68
2021/11/17 06:59:48;;;;;;;12.13;5.40;;;5.00;99.90;;;;;;5013684;28;20057;-69
2021/11/17 07:02:14;;;;;;;11.40;6.05;;;5.00;99.90;;;;;;5014730;28;20037;-69
2021/11/17 07:04:40;;;;;;;13.00;5.70;;;5.00;99.90;;;;;;5014527;28;20093;-68
2021/11/17 07:07:09;;;;;;;11.02;5.70;;;5.00;99.90;;;;;;5013333;28;20101;-68
2021/11/17 07:09:35;;;;;;;11.10;4.93;;;5.00;99.90;;;;;;5026240;28;20029;-68
2021/11/17 07:12:00;;;;;;;12.60;6.68;;;5.00;99.90;;;;;;5011628;28;20119;-69
2021/11/17 07:14:26;;;;;;;15.18;6.05;;;5.00;99.90;;;;;;5011885;28;20030;-68
2021/11/17 07:16:53;;;;;;;12.63;6.30;;;5.00;99.90;;;;;;5011332;28;20029;-68
2021/11/17 07:19:24;;;;;;;11.05;6.10;;;5.00;99.90;;;;;;5029049;28;20541;-68
2021/11/17 07:21:55;;;;;;;15.40;6.47;;;5.00;99.90;;;;;;5031335;28;20441;-68
2021/11/17 07:24:22;;;;;;;15.85;6.07;;;5.00;99.90;;;;;;5014632;28;20103;-68
2021/11/17 07:26:47;;;;;;;9.50;5.50;;;5.00;99.90;;;;;;5030415;28;20030;-69
2021/11/17 07:29:14;;;;;;;11.35;5.47;;;5.00;99.90;;;;;;5016017;28;20445;-67
2021/11/17 07:31:40;;;;;;;13.73;6.28;;;5.00;99.90;;;;;;5014274;28;20148;-68
2021/11/17 07:34:05;;;;;;;15.98;6.60;;;5.00;99.90;;;;;;5015873;28;20082;-68
2021/11/17 07:36:31;;;;;;;11.75;5.50;;;5.00;99.90;;;;;;5017244;28;20025;-68
2021/11/17 07:38:57;;;;;;;11.98;6.60;;;5.00;99.90;;;;;;5015302;28;20160;-67
2021/11/17 07:41:23;;;;;;;12.05;5.78;;;5.00;99.90;;;;;;5017224;28;20025;-68
2021/11/17 07:43:49;;;;;;;13.32;6.45;;;5.00;99.90;;;;;;5014452;28;20034;-68
2021/11/17 07:46:14;;;;;;;13.13;5.90;;;5.00;99.90;;;;;;5017591;28;20017;-67
2021/11/17 07:48:40;;;;;;;13.15;5.85;;;5.00;99.90;;;;;;5014422;28;20090;-68
2021/11/17 07:51:06;;;;;;;12.38;5.57;;;5.00;99.90;;;;;;5016665;28;20033;-68
2021/11/17 07:53:33;;;;;;;10.98;5.97;;;5.00;99.90;;;;;;5011518;28;20131;-69
2021/11/17 07:56:00;;;;;;;10.75;5.75;;;5.00;99.90;;;;;;5011332;28;20561;-68
2021/11/17 07:58:30;;;;;;;12.82;6.05;;;5.00;99.90;;;;;;5029745;28;20044;-68
2021/11/17 08:00:58;;;;;;;13.23;6.28;;;5.00;99.90;;;;;;5010987;28;20068;-68
2021/11/17 08:03:30;;;;;;;11.73;6.20;;;5.00;99.90;;;;;;5013654;28;20021;-68
2021/11/17 08:05:56;;;;;;;11.07;6.43;;;5.00;99.90;;;;;;5011320;28;20653;-68
2021/11/17 08:08:24;;;;;;;14.15;5.75;;;5.10;99.90;;;;;;5011730;28;20032;-68
2021/11/17 08:10:51;;;;;;;11.82;5.72;;;5.00;99.90;;;;;;5012057;28;20029;-68
2021/11/17 08:13:16;;;;;;;11.80;5.80;;;5.00;99.90;;;;;;5010702;28;20091;-68
2021/11/17 08:15:42;;;;;;;12.20;4.90;;;5.00;99.90;;;;;;5010862;28;20029;-68
2021/11/17 08:18:08;;;;;;;10.68;5.07;;;5.10;99.90;;;;;;5015795;28;20063;-68
2021/11/17 08:20:34;;;;;;;11.65;5.55;;;5.00;99.90;;;;;;5011338;28;20037;-69
2021/11/17 08:23:01;;;;;;;11.65;5.95;;;5.10;99.90;;;;;;5010916;28;20037;-68
2021/11/17 08:25:33;;;;;;;11.27;5.47;;;5.10;99.90;;;;;;5024164;28;20107;-68
2021/11/17 08:27:59;;;;;;;12.02;4.97;;;5.10;99.90;;;;;;5010498;28;20029;-69
2021/11/17 08:30:28;;;;;;;11.55;5.35;;;5.10;99.90;;;;;;5010458;28;20140;-69
2021/11/17 08:32:55;;;;;;;11.80;4.90;;;5.20;99.90;;;;;;5014818;28;20117;-68
2021/11/17 08:35:24;;;;;;;8.65;4.65;;;5.20;99.90;;;;;;5011469;28;20077;-68
2021/11/17 08:37:53;;;;;;;10.15;5.00;;;5.10;99.90;;;;;;5011626;28;20033;-67
2021/11/17 08:40:22;;;;;;;9.07;4.82;;;5.10;99.90;;;;;;5010788;28;20029;-67
2021/11/17 08:42:47;;;;;;;;;;;5.20;99.90;;;;;;5010869;28;20033;-68
2021/11/17 08:45:14;;;;;;;11.45;5.05;;;5.20;99.90;;;;;;5010122;28;19928;-67
2021/11/17 08:47:41;;;;;;;8.82;4.78;;;5.20;99.90;;;;;;5010502;28;20029;-68
2021/11/17 08:50:10;;;;;;;12.70;4.97;;;5.20;99.90;;;;;;5009676;28;20442;-69
2021/11/17 08:52:35;;;;;;;8.90;4.45;;;5.20;99.90;;;;;;5010872;28;20041;-68
2021/11/17 08:55:01;;;;;;;10.95;4.72;;;5.30;99.90;;;;;;5009898;28;20108;-68
2021/11/17 08:57:27;;;;;;;8.40;4.63;;;5.20;99.90;;;;;;5009467;28;20057;-68
2021/11/17 08:59:53;;;;;;;10.52;5.03;;;5.30;99.90;;;;;;5011072;28;20033;-68
2021/11/17 09:02:20;;;;;;;8.80;4.55;;;5.30;99.90;;;;;;5013585;28;20038;-69
2021/11/17 09:04:46;;;;;;;12.23;5.25;;;5.30;99.90;;;;;;5010872;28;20025;-68
2021/11/17 09:07:12;;;;;;;7.93;4.32;;;5.30;99.90;;;;;;5008930;28;20022;-69
2021/11/17 09:09:38;;;;;;;8.85;4.43;;;5.30;99.90;;;;;;5009089;28;20022;-68
2021/11/17 09:12:05;;;;;;;10.32;8.25;;;5.30;99.90;;;;;;5008658;28;20029;-69
2021/11/17 09:14:32;;;;;;;9.30;4.47;;;5.30;99.90;;;;;;5010398;28;20549;-69
2021/11/17 09:16:57;;;;;;;9.27;4.93;;;5.30;99.90;;;;;;5009284;28;20026;-68
2021/11/17 09:19:23;;;;;;;7.20;3.90;;;5.40;99.90;;;;;;5010118;28;20045;-68
2021/11/17 09:21:50;;;;;;;6.47;3.55;;;5.40;99.90;;;;;;5009556;28;20030;-68
2021/11/17 09:24:18;;;;;;;9.25;4.18;;;5.40;99.90;;;;;;5009405;28;20033;-68
2021/11/17 09:26:46;;;;;;;4.95;3.33;;;5.40;99.90;;;;;;5009549;28;20099;-67
2021/11/17 09:29:12;;;;;;;11.90;4.03;;;5.40;99.90;;;;;;5009483;28;20080;-68
2021/11/17 09:31:39;;;;;;;7.30;3.75;;;5.40;99.90;;;;;;5013979;28;20034;-67
2021/11/17 09:34:06;;;;;;;7.70;3.80;;;5.40;99.90;;;;;;5009226;28;20026;-68
2021/11/17 09:36:33;;;;;;;7.47;4.13;;;5.50;99.90;;;;;;5010003;28;20033;-68
2021/11/17 09:38:59;;;;;;;8.30;3.72;;;5.50;99.90;;;;;;5011020;28;20034;-68
2021/11/17 09:41:38;;;;;;;6.30;3.47;;;5.50;99.90;;;;;;5013212;28;20123;-68
2021/11/17 09:44:10;;;;;;;6.80;3.85;;;5.50;99.90;;;;;;5012730;28;20033;-68
2021/11/17 09:46:38;;;;;;;9.07;4.60;;;5.50;99.90;;;;;;5029855;28;20018;-68
2021/11/17 09:49:26;;;;;;;7.47;4.38;;;5.50;99.90;;;;;;5013329;28;20116;-67
2021/11/17 09:51:56;;;;;;;7.13;4.43;;;5.50;99.90;;;;;;5029983;28;20029;-68
2021/11/17 09:54:32;;;;;;;5.32;4.05;;;5.60;99.90;;;;;;5012838;28;20033;-68
2021/11/17 09:57:06;;;;;;;9.18;4.53;;;5.60;99.90;;;;;;5013653;28;20094;-68
2021/11/17 10:00:02;;;;;;;11.60;5.05;;;5.60;99.90;;;;;;5014510;28;20033;-68
2021/11/17 10:02:39;;;;;;;7.55;4.55;;;5.60;99.90;;;;;;5016966;28;20503;-68
2021/11/17 10:05:22;;;;;;;7.15;4.53;;;5.60;99.90;;;;;;5013505;28;20083;-68
2021/11/17 10:13:31;;;;;;;8.88;4.53;;;5.70;99.90;;;;;;5014963;28;20025;-68
2021/11/17 10:15:57;;;;;;;6.85;4.10;;;5.70;99.90;;;;;;5014220;28;20037;-67
2021/11/17 10:18:31;;;;;;;7.15;3.95;;;5.70;99.90;;;;;;5014410;28;20040;-68
2021/11/17 10:21:02;;;;;;;7.70;4.30;;;5.70;99.90;;;;;;5013490;28;20394;-68
2021/11/17 10:23:52;;;;;;;8.55;3.60;;;5.70;99.90;;;;;;5013579;28;20501;-68
2021/11/17 10:26:18;;;;;;;7.40;4.35;;;5.70;99.90;;;;;;5014247;28;20061;-68
2021/11/17 10:28:55;;;;;;;6.53;4.00;;;5.70;99.90;;;;;;5013806;28;20065;-68
2021/11/17 10:31:37;;;;;;;7.63;4.22;;;5.80;99.90;;;;;;5017469;28;20033;-68
2021/11/17 10:34:14;;;;;;;7.38;4.00;;;5.70;99.90;;;;;;5013473;28;20033;-68
2021/11/17 10:37:04;;;;;;;8.88;3.63;;;5.80;99.90;;;;;;5014264;28;20427;-69
2021/11/17 10:39:39;;;;;;;8.27;4.13;;;5.70;99.90;;;;;;5013489;28;20398;-68
2021/11/17 10:42:19;;;;;;;6.85;3.58;;;5.80;99.90;;;;;;5012735;28;20962;-68
2021/11/17 10:44:53;;;;;;;6.50;3.53;;;5.80;99.90;;;;;;5012549;28;20678;-68
2021/11/17 10:47:28;;;;;;;6.85;3.78;;;5.80;99.90;;;;;;5012673;28;20037;-68
2021/11/17 10:50:06;;;;;;;5.35;3.33;;;5.80;99.90;;;;;;5012688;28;20033;-67
2021/11/17 10:52:50;;;;;;;6.75;3.67;;;5.80;99.90;;;;;;5011697;28;20041;-68
2021/11/17 10:55:27;;;;;;;9.77;3.40;;;5.80;99.90;;;;;;5013518;28;20037;-68
2021/11/17 10:57:53;;;;;;;5.03;3.60;;;5.80;99.90;;;;;;5025233;28;20034;-68
2021/11/17 11:00:28;;;;;;;7.38;3.20;;;5.80;99.90;;;;;;5017866;28;20034;-68
2021/11/17 11:02:54;;;;;;;6.07;3.05;;;5.90;99.90;;;;;;5018330;28;20116;-68
2021/11/17 11:05:27;;;;;;;5.15;3.20;;;5.80;99.90;;;;;;5010720;28;20165;-69
2021/11/17 11:08:00;;;;;;;3.97;2.70;;;5.90;99.90;;;;;;5013597;28;20035;-68
2021/11/17 11:10:55;;;;;;;5.25;3.50;;;5.90;99.90;;;;;;5012349;28;20044;-68
2021/11/17 11:13:40;;;;;;;6.25;3.03;;;5.90;99.90;;;;;;5012187;28;20041;-68
2021/11/17 11:16:29;;;;;;;5.35;3.20;;;5.90;99.90;;;;;;5012123;28;20072;-67
2021/11/17 11:19:10;;;;;;;7.47;3.33;;;5.90;99.90;;;;;;5005249;28;20048;-69
2021/11/17 11:21:41;;;;;;;5.68;3.15;;;5.90;99.90;;;;;;5012273;28;20573;-69
2021/11/17 11:24:31;;;;;;;5.07;2.95;;;5.90;99.90;;;;;;5013675;28;20056;-68
2021/11/17 11:27:00;;;;;;;5.78;3.30;;;5.90;99.90;;;;;;5012079;28;20021;-68
2021/11/17 11:29:36;;;;;;;4.65;3.10;;;5.90;99.90;;;;;;5029865;28;20057;-67
2021/11/17 11:32:25;;;;;;;6.72;2.70;;;5.90;99.90;;;;;;5011185;28;20033;-68
2021/11/17 11:35:00;;;;;;;;;;;5.90;99.90;;;;;;5012780;28;20034;-68
2021/11/17 11:37:25;;;;;;;4.45;2.95;;;5.80;99.90;;;;;;5031052;28;19966;-67
2021/11/17 11:40:01;;;;;;;3.08;1.95;;;5.80;99.90;;;;;;5011437;28;20037;-68
2021/11/17 11:43:00;;;;;;;3.17;1.92;;;5.70;99.90;;;;;;5012294;28;20693;-68
2021/11/17 11:45:26;;;;;;;2.22;1.65;;;5.60;99.90;;;;;;5010912;28;20025;-67
2021/11/17 11:48:11;;;;;;;4.03;2.25;;;5.50;99.90;;;;;;5012861;28;20505;-68
2021/11/17 11:50:39;;;;;;;3.30;1.77;;;5.60;99.90;;;;;;5011679;28;20417;-68
2021/11/17 11:53:14;;;;;;;2.33;1.95;;;5.50;99.90;;;;;;5009621;28;20159;-67
2021/11/17 11:55:55;;;;;;;2.40;1.55;;;5.50;99.90;;;;;;5011741;28;20041;-68
2021/11/17 11:58:20;;;;;;;4.85;2.15;;;5.50;99.90;;;;;;5012211;28;20547;-67
2021/11/17 12:01:11;;;;;;;1.85;1.75;;;5.50;99.90;;;;;;5014271;28;20033;-67
2021/11/17 12:03:46;;;;;;;2.80;2.22;;;5.40;99.90;;;;;;5010652;28;20681;-67
2021/11/17 12:06:39;;;;;;;6.53;2.60;;;5.40;99.50;;;;;;5010600;28;20041;-68
2021/11/17 12:09:21;;;;;;;4.00;2.50;;;5.40;99.90;;;;;;5011386;28;20025;-68
2021/11/17 12:11:57;;;;;;;2.78;2.10;;;5.40;99.90;;;;;;5014900;28;20017;-68
2021/11/17 12:14:45;;;;;;;2.22;2.00;;;5.40;99.90;;;;;;5012442;28;20037;-67
2021/11/17 12:17:17;;;;;;;3.53;2.10;;;5.40;99.90;;;;;;5025045;28;20029;-67
2021/11/17 12:19:52;;;;;;;5.20;2.80;;;5.40;99.90;;;;;;5011461;28;20042;-67
2021/11/17 12:22:36;;;;;;;3.08;2.70;;;5.40;99.90;;;;;;5016325;28;20450;-67
2021/11/17 12:25:20;;;;;;;3.40;2.10;;;5.50;99.90;;;;;;5011529;28;20072;-67
2021/11/17 12:27:49;;;;;;;1.92;1.75;;;5.50;99.90;;;;;;5013411;28;20083;-68
2021/11/17 12:30:40;;;;;;;2.92;2.00;;;5.50;99.90;;;;;;5012876;28;20026;-68
2021/11/17 12:33:17;;;;;;;1.95;1.60;;;5.50;99.90;;;;;;5010417;28;20041;-68
2021/11/17 12:35:47;;;;;;;3.72;2.30;;;5.60;99.90;;;;;;5011372;28;20791;-68
2021/11/17 12:38:16;;;;;;;2.78;2.00;;;5.60;99.90;;;;;;5025474;28;20037;-68
2021/11/17 12:40:46;;;;;;;3.00;1.98;;;5.60;99.90;;;;;;5011569;28;20068;-67
2021/11/17 12:43:14;;;;;;;2.85;2.17;;;5.60;99.90;;;;;;5013122;28;20037;-67
2021/11/17 12:45:50;;;;;;;2.30;1.90;;;5.70;99.90;;;;;;5009595;28;20120;-68
2021/11/17 12:48:27;;;;;;;2.20;2.00;;;5.80;99.80;;;;;;5014159;28;20025;-68
2021/11/17 12:51:04;;;;;;;2.75;2.13;;;5.80;98.80;;;;;;5025053;28;20448;-68
2021/11/17 12:54:04;;;;;;;1.60;1.50;;;5.80;99.30;;;;;;5025009;28;20034;-67
2021/11/17 12:56:45;;;;;;;2.80;1.60;;;5.80;97.50;;;;;;5006365;28;20056;-67
2021/11/17 12:59:19;;;;;;;2.17;1.38;;;5.80;97.50;;;;;;5012160;28;20041;-67
2021/11/17 13:01:55;;;;;;;2.38;1.52;;;5.90;97.10;;;;;;5014878;28;20494;-67
2021/11/17 13:04:28;;;;;;;1.73;1.52;;;5.90;97.60;;;;;;5011108;28;20033;-67
2021/11/17 13:06:58;;;;;;;3.03;1.80;;;5.90;95.90;;;;;;5011066;28;20044;-68
2021/11/17 13:09:27;;;;;;;2.10;1.70;;;5.80;96.40;;;;;;5010143;28;20034;-67
2021/11/17 13:11:55;;;;;;;1.60;1.50;;;5.80;96.10;;;;;;5010163;28;20117;-68
2021/11/17 13:14:32;;;;;;;2.15;1.70;;;5.80;97.20;;;;;;5014479;28;20038;-68
2021/11/17 13:17:24;;;;;;;2.83;1.90;;;5.80;96.80;;;;;;5017971;28;20034;-67
2021/11/17 13:19:53;;;;;;;2.72;1.70;;;5.70;97.40;;;;;;5012498;28;20045;-67
2021/11/17 13:22:29;;;;;;;3.08;2.10;;;5.70;96.80;;;;;;5013627;28;20061;-67
2021/11/17 13:25:10;;;;;;;2.63;1.77;;;5.60;97.70;;;;;;5012594;28;20053;-67
2021/11/17 13:27:46;;;;;;;2.65;1.88;;;5.60;98.00;;;;;;5015986;28;20124;-66
2021/11/17 13:30:20;;;;;;;5.03;2.45;;;5.60;97.10;;;;;;5026808;28;20021;-68
2021/11/17 13:32:48;;;;;;;3.28;2.63;;;5.50;96.30;;;;;;5028485;28;20118;-67
2021/11/17 13:35:23;;;;;;;4.82;3.00;;;5.50;96.30;;;;;;5014366;28;20041;-66
2021/11/17 13:37:49;;;;;;;5.22;3.20;;;5.50;96.80;;;;;;5013759;28;20037;-67
2021/11/17 13:40:24;;;;;;;4.30;2.92;;;5.50;97.50;;;;;;5014613;28;20132;-67
2021/11/17 13:42:51;;;;;;;5.18;2.40;;;5.50;98.00;;;;;;5013920;28;20044;-67
2021/11/17 13:45:21;;;;;;;4.47;2.15;;;5.50;98.20;;;;;;5014279;28;20036;-68
2021/11/17 13:47:48;;;;;;;5.03;2.47;;;5.50;97.60;;;;;;5014275;28;20026;-67
2021/11/17 13:50:16;;;;;;;3.22;2.80;;;5.50;97.10;;;;;;5014510;28;20079;-67
2021/11/17 13:52:45;;;;;;;4.07;2.72;;;5.50;97.30;;;;;;5011691;28;20135;-67
2021/11/17 13:55:16;;;;;;;4.50;2.95;;;5.50;98.00;;;;;;5014049;28;20079;-67
2021/11/17 13:57:43;;;;;;;3.10;2.40;;;5.50;97.50;;;;;;5013209;28;20041;-67
2021/11/17 14:00:12;;;;;;;4.65;2.70;;;5.50;97.80;;;;;;5014343;28;20030;-68
2021/11/17 14:02:38;;;;;;;4.05;2.83;;;5.50;98.30;;;;;;5018131;28;20092;-67
2021/11/17 14:05:05;;;;;;;4.15;2.90;;;5.50;99.10;;;;;;5017203;28;20057;-67
2021/11/17 14:07:32;;;;;;;4.93;2.88;;;5.60;98.80;;;;;;5014079;28;20032;-69
2021/11/17 14:09:59;;;;;;;4.00;2.80;;;5.60;99.30;;;;;;5030508;28;20033;-67
2021/11/17 14:12:25;;;;;;;5.28;2.40;;;5.60;97.60;;;;;;5013240;28;20026;-67
2021/11/17 14:14:51;;;;;;;3.33;3.00;;;5.60;98.70;;;;;;5014505;28;20025;-67
2021/11/17 14:17:16;;;;;;;4.10;2.45;;;5.60;99.20;;;;;;5012675;28;20509;-67
2021/11/17 14:19:42;;;;;;;4.05;2.65;;;5.60;99.50;;;;;;5017825;28;20057;-67
2021/11/17 14:22:08;;;;;;;3.33;2.72;;;5.60;98.20;;;;;;5016620;28;20112;-67
2021/11/17 14:24:34;;;;;;;4.72;2.90;;;5.50;98.80;;;;;;5011723;28;20577;-66
2021/11/17 14:27:03;;;;;;;3.60;2.63;;;5.50;99.20;;;;;;5013935;28;20040;-67
2021/11/17 14:29:33;;;;;;;5.50;3.17;;;5.50;98.50;;;;;;5014901;28;20644;-67
2021/11/17 14:32:08;;;;;;;2.92;2.45;;;5.60;99.30;;;;;;5014613;28;20034;-67
2021/11/17 14:34:34;;;;;;;4.75;2.70;;;5.50;98.50;;;;;;5014758;28;20682;-68
2021/11/17 14:37:05;;;;;;;3.05;2.38;;;5.50;98.70;;;;;;5012304;28;20033;-67
2021/11/17 14:39:33;;;;;;;3.85;2.75;;;5.50;99.30;;;;;;5014623;28;20033;-67
2021/11/17 14:41:59;;;;;;;4.20;2.83;;;5.50;99.10;;;;;;5012648;28;20037;-67
2021/11/17 14:44:24;;;;;;;3.75;2.58;;;5.50;99.00;;;;;;5012826;28;21226;-67
2021/11/17 14:46:50;;;;;;;3.42;2.70;;;5.50;99.20;;;;;;5013187;28;20030;-67
2021/11/17 14:49:17;;;;;;;3.63;2.55;;;5.50;98.80;;;;;;5012150;28;20032;-67
2021/11/17 14:51:43;;;;;;;2.85;2.55;;;5.50;99.60;;;;;;5012572;28;20029;-67
2021/11/17 14:54:09;;;;;;;2.55;2.20;;;5.50;99.90;;;;;;5013027;28;20520;-67
2021/11/17 14:56:37;;;;;;;3.97;2.80;;;5.50;99.50;;;;;;5016124;28;20076;-67
2021/11/17 14:59:03;;;;;;;2.55;2.22;;;5.50;99.90;;;;;;5013105;28;20037;-67
2021/11/17 15:01:32;;;;;;;3.63;2.90;;;5.50;99.90;;;;;;5013357;28;20030;-68
2021/11/17 15:04:02;;;;;;;3.47;2.42;;;5.50;99.90;;;;;;5016349;28;20076;-67
2021/11/17 15:06:28;;;;;;;2.78;2.10;;;5.60;99.90;;;;;;5017639;28;20033;-67
2021/11/17 15:08:54;;;;;;;5.20;2.38;;;5.60;99.90;;;;;;5013807;28;20030;-68
2021/11/17 15:11:21;;;;;;;3.85;2.38;;;5.60;99.90;;;;;;5016368;28;20126;-67
2021/11/17 15:13:47;;;;;;;2.85;2.58;;;5.50;99.90;;;;;;5013796;28;20438;-67
2021/11/17 15:16:13;;;;;;;3.50;2.60;;;5.50;99.90;;;;;;5012412;28;20029;-67
2021/11/17 15:18:43;;;;;;;3.60;2.58;;;5.50;99.90;;;;;;5014179;28;20118;-67
2021/11/17 15:21:09;;;;;;;3.88;2.60;;;5.50;99.90;;;;;;5011498;28;20063;-67
2021/11/17 15:23:35;;;;;;;3.90;2.78;;;5.50;99.90;;;;;;5011091;28;20037;-68
2021/11/17 15:26:03;;;;;;;4.68;3.15;;;5.50;99.90;;;;;;5023093;28;20045;-67
2021/11/17 15:28:42;;;;;;;4.13;2.97;;;5.50;99.90;;;;;;5013355;28;20052;-67
2021/11/17 15:31:14;;;;;;;4.25;2.60;;;5.50;99.90;;;;;;5011748;28;20076;-67
2021/11/17 15:33:40;;;;;;;3.72;2.88;;;5.50;99.90;;;;;;5016833;28;20040;-67
2021/11/17 15:36:08;;;;;;;3.30;2.45;;;5.50;99.90;;;;;;5012351;28;20041;-67
2021/11/17 15:38:35;;;;;;;5.22;2.92;;;5.50;99.90;;;;;;5012833;28;20026;-67
2021/11/17 15:41:04;;;;;;;4.10;2.70;;;5.60;99.90;;;;;;5014319;28;20478;-67
2021/11/17 15:43:30;;;;;;;3.45;2.45;;;5.50;99.90;;;;;;5011502;28;20104;-66
2021/11/17 15:45:56;;;;;;;5.72;3.28;;;5.60;99.90;;;;;;5011780;28;20028;-67
2021/11/17 15:48:23;;;;;;;4.65;3.00;;;5.50;99.90;;;;;;5014396;28;20025;-67
2021/11/17 15:50:57;;;;;;;3.35;2.70;;;5.50;99.90;;;;;;5010905;28;20514;-67
2021/11/17 15:53:23;;;;;;;6.18;2.85;;;5.50;99.90;;;;;;5011856;28;20029;-68
2021/11/17 15:55:49;;;;;;;4.72;3.00;;;5.50;99.90;;;;;;5011651;28;20079;-67
2021/11/17 15:58:15;;;;;;;4.45;2.70;;;5.50;99.90;;;;;;5030121;28;20071;-67
2021/11/17 16:00:41;;;;;;;4.47;3.35;;;5.50;99.90;;;;;;5010420;28;20037;-67
2021/11/17 16:03:06;;;;;;;4.72;2.83;;;5.50;99.90;;;;;;5016504;28;20036;-67